createdAt,value
2023-05-04T00:02:22.426Z,2.30
2023-05-04T00:04:52.125Z,2.20
2023-05-04T00:07:19.892Z,2.30
2023-05-04T00:09:46.925Z,2.30
2023-05-04T00:12:13.777Z,2.30
2023-05-04T00:14:40.829Z,2.60
2023-05-04T00:17:08.185Z,2.90
2023-05-04T00:19:40.564Z,2.50
2023-05-04T00:22:07.967Z,2.40
2023-05-04T00:24:34.980Z,2.50
2023-05-04T00:27:02.542Z,2.80
2023-05-04T00:29:30.624Z,2.40
2023-05-04T00:31:57.736Z,2.00
2023-05-04T00:34:25.041Z,2.40
2023-05-04T00:36:51.937Z,2.50
2023-05-04T00:39:18.853Z,2.50
2023-05-04T00:41:45.964Z,2.50
2023-05-04T00:44:13.251Z,2.40
2023-05-04T00:46:40.736Z,2.50
2023-05-04T00:49:07.810Z,2.70
2023-05-04T00:51:34.941Z,2.50
2023-05-04T00:54:01.830Z,2.30
2023-05-04T00:56:29.234Z,2.60
2023-05-04T00:58:58.045Z,2.50
2023-05-04T01:01:25.466Z,2.80
2023-05-04T01:03:52.776Z,2.50
2023-05-04T01:06:26.290Z,3.10
2023-05-04T01:09:02.410Z,2.70
2023-05-04T01:11:41.436Z,2.70
2023-05-04T01:14:08.293Z,2.60
2023-05-04T01:16:35.282Z,2.80
2023-05-04T01:19:04.023Z,2.80
2023-05-04T01:21:31.394Z,2.30
2023-05-04T01:23:58.964Z,2.60
2023-05-04T01:26:29.319Z,2.70
2023-05-04T01:29:17.118Z,3.00
2023-05-04T01:31:45.137Z,2.80
2023-05-04T01:34:12.760Z,2.90
2023-05-04T01:36:40.433Z,2.90
2023-05-04T01:39:09.880Z,2.90
2023-05-04T01:41:36.990Z,3.50
2023-05-04T01:44:04.983Z,3.10
2023-05-04T01:46:31.934Z,3.10
2023-05-04T01:49:00.396Z,3.20
2023-05-04T01:51:27.350Z,2.70
2023-05-04T01:53:54.297Z,3.20
2023-05-04T01:56:21.960Z,3.30
2023-05-04T01:58:48.917Z,3.00
2023-05-04T02:01:15.886Z,3.10
2023-05-04T02:03:43.051Z,2.70
2023-05-04T02:06:10.351Z,3.20
2023-05-04T02:08:37.248Z,2.90
2023-05-04T02:11:04.150Z,2.70
2023-05-04T02:13:31.540Z,3.20
2023-05-04T02:15:58.520Z,3.60
2023-05-04T02:18:25.450Z,3.20
2023-05-04T02:20:52.264Z,3.50
2023-05-04T02:23:19.138Z,3.30
2023-05-04T02:25:45.950Z,3.10
2023-05-04T02:28:12.856Z,3.00
2023-05-04T02:30:39.790Z,3.50
2023-05-04T02:33:06.802Z,3.60
2023-05-04T02:35:33.743Z,3.90
2023-05-04T02:38:00.952Z,3.30
2023-05-04T02:40:28.004Z,3.80
2023-05-04T02:42:56.300Z,3.70
2023-05-04T02:45:23.350Z,3.50
2023-05-04T02:47:50.338Z,3.70
2023-05-04T02:50:17.466Z,3.20
2023-05-04T02:52:44.390Z,3.80
2023-05-04T02:55:11.361Z,3.50
2023-05-04T02:57:38.312Z,4.10
2023-05-04T03:00:07.276Z,4.10
2023-05-04T03:02:34.385Z,3.90
2023-05-04T03:05:01.306Z,4.00
2023-05-04T03:07:28.578Z,4.10
2023-05-04T03:09:55.525Z,4.30
2023-05-04T03:12:22.468Z,3.90
2023-05-04T03:14:49.327Z,4.50
2023-05-04T03:17:16.258Z,5.00
2023-05-04T03:19:43.218Z,5.00
2023-05-04T03:22:10.693Z,5.10
2023-05-04T03:24:38.144Z,5.40
2023-05-04T03:27:05.095Z,5.10
2023-05-04T03:29:32.580Z,5.00
2023-05-04T03:31:59.839Z,4.90
2023-05-04T03:34:26.866Z,4.60
2023-05-04T03:36:56.382Z,4.60
2023-05-04T03:39:23.603Z,4.80
2023-05-04T03:41:52.431Z,4.70
2023-05-04T03:44:20.131Z,4.60
2023-05-04T03:46:47.257Z,5.70
2023-05-04T03:49:14.512Z,5.20
2023-05-04T03:51:41.363Z,5.30
2023-05-04T03:54:08.446Z,5.40
2023-05-04T03:56:35.309Z,5.90
2023-05-04T03:59:02.167Z,5.30
2023-05-04T04:01:30.733Z,4.90
2023-05-04T04:03:57.866Z,6.40
2023-05-04T04:06:25.008Z,5.90
2023-05-04T04:08:52.166Z,5.40
2023-05-04T04:11:19.020Z,5.30
2023-05-04T04:13:45.874Z,5.40
2023-05-04T04:16:12.947Z,5.70
2023-05-04T04:18:39.997Z,4.90
2023-05-04T04:21:06.813Z,5.80
2023-05-04T04:23:33.649Z,5.90
2023-05-04T04:26:01.849Z,6.00
2023-05-04T04:28:29.010Z,6.00
2023-05-04T04:30:56.149Z,5.60
2023-05-04T04:33:23.218Z,5.50
2023-05-04T04:35:50.071Z,5.10
2023-05-04T04:38:17.239Z,5.60
2023-05-04T04:40:44.181Z,5.60
2023-05-04T04:43:11.739Z,6.10
2023-05-04T04:45:39.410Z,5.80
2023-05-04T04:48:06.683Z,6.00
2023-05-04T04:50:33.587Z,5.80
2023-05-04T04:53:00.568Z,5.30
2023-05-04T04:55:27.519Z,5.20
2023-05-04T04:57:55.799Z,5.70
2023-05-04T05:00:24.696Z,5.60
2023-05-04T05:02:51.835Z,6.20
2023-05-04T05:05:18.800Z,5.90
2023-05-04T05:07:45.854Z,5.30
2023-05-04T05:10:13.423Z,5.60
2023-05-04T05:12:40.391Z,5.30
2023-05-04T05:15:08.501Z,5.30
2023-05-04T05:17:37.765Z,6.20
2023-05-04T05:20:11.827Z,6.60
2023-05-04T05:22:39.146Z,6.30
2023-05-04T05:25:07.221Z,5.80
2023-05-04T05:27:34.784Z,6.10
2023-05-04T05:30:06.617Z,5.80
2023-05-04T05:32:33.929Z,6.00
2023-05-04T05:35:01.180Z,6.30
2023-05-04T05:37:28.110Z,5.40
2023-05-04T05:39:54.939Z,5.80
2023-05-04T05:42:22.016Z,5.90
2023-05-04T05:44:48.964Z,5.80
2023-05-04T05:47:15.874Z,5.70
2023-05-04T05:49:44.776Z,5.40
2023-05-04T05:52:13.197Z,5.90
2023-05-04T05:54:40.135Z,6.30
2023-05-04T05:57:07.088Z,6.40
2023-05-04T05:59:34.045Z,5.70
2023-05-04T06:02:00.995Z,9.90
2023-05-04T06:04:28.051Z,6.00
2023-05-04T06:06:55.608Z,7.10
2023-05-04T06:09:22.546Z,5.60
2023-05-04T06:11:49.497Z,11.10
2023-05-04T06:14:17.528Z,7.50
2023-05-04T06:16:44.693Z,5.70
2023-05-04T06:19:11.903Z,5.90
2023-05-04T06:21:38.852Z,5.90
2023-05-04T06:24:06.221Z,5.90
2023-05-04T06:26:33.142Z,7.50
2023-05-04T06:29:00.147Z,6.70
2023-05-04T06:31:27.198Z,6.90
2023-05-04T06:33:54.224Z,7.30
2023-05-04T06:36:21.385Z,6.50
2023-05-04T06:38:48.326Z,6.60
2023-05-04T06:41:15.259Z,7.10
2023-05-04T06:43:42.490Z,6.10
2023-05-04T06:46:09.658Z,6.80
2023-05-04T06:48:36.645Z,6.60
2023-05-04T06:51:03.591Z,5.90
2023-05-04T06:53:30.548Z,8.80
2023-05-04T06:55:57.407Z,6.60
2023-05-04T06:58:24.259Z,6.90
2023-05-04T07:00:51.457Z,5.80
2023-05-04T07:03:18.822Z,6.00
2023-05-04T07:05:48.715Z,6.10
2023-05-04T07:08:15.525Z,5.40
2023-05-04T07:10:42.482Z,6.10
2023-05-04T07:13:09.663Z,6.20
2023-05-04T07:15:37.100Z,5.60
2023-05-04T07:18:04.494Z,6.70
2023-05-04T07:20:31.611Z,5.50
2023-05-04T07:22:58.520Z,6.00
2023-05-04T07:25:25.880Z,6.00
2023-05-04T07:27:52.996Z,5.50
2023-05-04T07:30:20.546Z,5.60
2023-05-04T07:32:47.543Z,4.60
2023-05-04T07:35:15.368Z,5.60
2023-05-04T07:37:42.317Z,5.40
2023-05-04T07:40:10.530Z,5.20
2023-05-04T07:42:37.492Z,6.60
2023-05-04T07:45:05.134Z,6.40
2023-05-04T07:47:32.167Z,5.60
2023-05-04T07:49:59.223Z,5.80
2023-05-04T07:52:26.176Z,5.50
2023-05-04T07:54:53.750Z,5.70
2023-05-04T07:57:21.201Z,5.20
2023-05-04T07:59:48.112Z,5.20
2023-05-04T08:02:16.895Z,5.30
2023-05-04T08:04:43.864Z,5.10
2023-05-04T08:07:10.769Z,6.00
2023-05-04T08:09:37.800Z,5.60
2023-05-04T08:12:05.370Z,6.00
2023-05-04T08:14:33.559Z,6.10
2023-05-04T08:17:00.747Z,7.20
2023-05-04T08:19:27.756Z,5.50
2023-05-04T08:21:55.542Z,6.40
2023-05-04T08:24:22.580Z,5.70
2023-05-04T08:26:55.934Z,5.80
2023-05-04T08:29:31.944Z,5.70
2023-05-04T08:31:59.540Z,5.60
2023-05-04T08:34:27.067Z,6.40
2023-05-04T08:36:54.164Z,6.40
2023-05-04T08:39:21.219Z,6.00
2023-05-04T08:41:48.050Z,5.70
2023-05-04T08:44:16.104Z,5.00
2023-05-04T08:46:43.270Z,4.60
2023-05-04T08:49:13.089Z,4.70
2023-05-04T08:51:40.029Z,5.20
2023-05-04T08:54:08.987Z,5.20
2023-05-04T08:56:36.662Z,4.40
2023-05-04T08:59:04.007Z,4.20
2023-05-04T09:01:31.114Z,4.50
2023-05-04T09:03:58.301Z,4.10
2023-05-04T09:06:25.315Z,3.90
2023-05-04T09:08:52.231Z,5.00
2023-05-04T09:11:19.140Z,4.30
2023-05-04T09:13:47.832Z,4.10
2023-05-04T09:16:16.490Z,4.50
2023-05-04T09:18:44.115Z,4.00
2023-05-04T09:21:11.443Z,4.00
2023-05-04T09:23:54.124Z,4.60
2023-05-04T09:26:32.682Z,4.70
2023-05-04T09:29:13.982Z,5.20
2023-05-04T09:31:44.256Z,4.80
2023-05-04T09:34:11.153Z,5.30
2023-05-04T09:36:38.314Z,4.80
2023-05-04T09:39:11.596Z,4.50
2023-05-04T09:41:38.607Z,5.30
2023-05-04T09:44:05.500Z,4.20
2023-05-04T09:46:33.326Z,3.70
2023-05-04T09:49:01.544Z,4.30
2023-05-04T09:51:28.898Z,4.20
2023-05-04T09:53:55.929Z,4.10
2023-05-04T09:56:42.347Z,3.90
2023-05-04T09:59:10.291Z,4.60
2023-05-04T10:01:37.290Z,4.20
2023-05-04T10:04:04.556Z,4.00
2023-05-04T10:06:31.415Z,4.30
2023-05-04T10:08:59.628Z,5.20
2023-05-04T10:11:26.902Z,4.20
2023-05-04T10:13:56.209Z,4.50
2023-05-04T10:16:48.832Z,4.40
2023-05-04T10:19:18.274Z,4.40
2023-05-04T10:21:53.422Z,4.60
2023-05-04T10:24:38.797Z,4.40
2023-05-04T10:27:20.297Z,4.00
2023-05-04T10:29:51.497Z,4.70
2023-05-04T10:32:20.341Z,4.00
2023-05-04T10:34:47.327Z,4.40
2023-05-04T10:37:18.370Z,4.30
2023-05-04T10:39:54.960Z,4.30
2023-05-04T10:42:22.112Z,4.00
2023-05-04T10:44:53.580Z,4.20
2023-05-04T10:47:46.937Z,4.60
2023-05-04T10:50:14.756Z,4.60
2023-05-04T10:52:46.338Z,4.10
2023-05-04T10:55:13.410Z,4.30
2023-05-04T10:57:56.919Z,4.20
2023-05-04T11:00:24.606Z,3.80
2023-05-04T11:02:52.501Z,4.30
2023-05-04T11:05:20.813Z,4.00
2023-05-04T11:07:50.828Z,4.20
2023-05-04T11:10:25.035Z,4.40
2023-05-04T11:12:52.844Z,5.40
2023-05-04T11:15:21.420Z,4.40
2023-05-04T11:17:49.593Z,4.10
2023-05-04T11:20:20.869Z,4.00
2023-05-04T11:22:48.645Z,4.00
2023-05-04T11:25:17.046Z,5.80
2023-05-04T11:27:44.524Z,3.90
2023-05-04T11:30:12.261Z,5.50
2023-05-04T11:32:43.866Z,5.40
2023-05-04T11:35:15.837Z,5.00
2023-05-04T11:37:43.495Z,3.90
2023-05-04T11:40:11.352Z,3.60
2023-05-04T11:42:40.302Z,5.30
2023-05-04T11:45:09.769Z,5.00
2023-05-04T11:47:37.777Z,4.60
2023-05-04T11:50:06.836Z,4.90
2023-05-04T11:52:36.548Z,3.90
2023-05-04T11:55:04.003Z,5.60
2023-05-04T11:57:31.956Z,5.10
2023-05-04T11:59:58.905Z,5.30
2023-05-04T12:02:27.106Z,4.60
2023-05-04T12:04:54.153Z,3.70
2023-05-04T12:07:21.064Z,5.20
2023-05-04T12:09:48.575Z,5.60
2023-05-04T12:12:16.661Z,6.70
2023-05-04T12:14:50.368Z,3.40
2023-05-04T12:17:17.247Z,5.30
2023-05-04T12:19:55.187Z,5.20
2023-05-04T12:22:33.189Z,4.60
2023-05-04T12:25:00.115Z,3.70
2023-05-04T12:27:27.297Z,4.50
2023-05-04T12:29:55.885Z,4.20
2023-05-04T12:32:23.290Z,4.30
2023-05-04T12:34:50.168Z,4.70
2023-05-04T12:37:17.410Z,4.30
2023-05-04T12:39:44.412Z,4.50
2023-05-04T12:42:11.461Z,4.90
2023-05-04T12:44:38.420Z,4.80
2023-05-04T12:47:05.475Z,5.10
2023-05-04T12:49:32.336Z,5.10
2023-05-04T12:51:59.370Z,5.00
2023-05-04T12:54:26.310Z,5.60
2023-05-04T12:56:53.649Z,5.50
2023-05-04T12:59:21.909Z,4.80
2023-05-04T13:01:49.256Z,5.70
2023-05-04T13:04:16.478Z,4.60
2023-05-04T13:06:43.371Z,5.20
2023-05-04T13:09:10.489Z,5.10
2023-05-04T13:11:38.567Z,7.00
2023-05-04T13:14:05.517Z,6.40
2023-05-04T13:16:32.550Z,4.80
2023-05-04T13:18:59.826Z,4.90
2023-05-04T13:21:26.695Z,4.40
2023-05-04T13:23:53.549Z,4.90
2023-05-04T13:26:20.479Z,4.80
2023-05-04T13:28:47.334Z,4.70
2023-05-04T13:31:14.418Z,4.90
2023-05-04T13:33:41.573Z,4.90
2023-05-04T13:36:08.818Z,4.80
2023-05-04T13:38:36.768Z,5.60
2023-05-04T13:41:04.038Z,4.40
2023-05-04T13:43:31.730Z,4.10
2023-05-04T13:46:02.953Z,4.00
2023-05-04T13:48:32.893Z,4.30
2023-05-04T13:50:59.803Z,4.90
2023-05-04T13:53:26.636Z,4.10
2023-05-04T13:55:53.620Z,4.60
2023-05-04T13:58:20.491Z,4.00
2023-05-04T14:00:47.381Z,4.20
2023-05-04T14:03:14.458Z,3.90
2023-05-04T14:05:41.834Z,3.20
2023-05-04T14:08:08.901Z,4.20
2023-05-04T14:10:37.419Z,3.70
2023-05-04T14:13:04.529Z,2.90
2023-05-04T14:15:32.169Z,4.10
2023-05-04T14:17:59.301Z,4.00
2023-05-04T14:20:26.505Z,3.00
2023-05-04T14:22:53.378Z,3.40
2023-05-04T14:25:21.682Z,3.60
2023-05-04T14:27:48.954Z,3.30
2023-05-04T14:30:16.151Z,3.30
2023-05-04T14:32:43.138Z,3.60
2023-05-04T14:35:11.178Z,3.40
2023-05-04T14:37:39.156Z,3.00
2023-05-04T14:40:08.003Z,3.60
2023-05-04T14:42:35.606Z,3.70
2023-05-04T14:45:02.672Z,3.20
2023-05-04T14:47:29.838Z,6.20
2023-05-04T14:49:57.653Z,14.20
2023-05-04T14:52:25.885Z,4.50
2023-05-04T14:54:52.832Z,3.40
2023-05-04T14:57:19.788Z,2.90
2023-05-04T14:59:46.959Z,3.20
2023-05-04T15:02:13.894Z,3.10
2023-05-04T15:04:40.755Z,3.40
2023-05-04T15:07:08.641Z,3.50
2023-05-04T15:09:35.866Z,3.40
2023-05-04T15:12:03.783Z,3.40
2023-05-04T15:14:31.001Z,5.70
2023-05-04T15:16:57.949Z,3.60
2023-05-04T15:19:24.861Z,3.30
2023-05-04T15:21:52.164Z,2.90
2023-05-04T15:24:19.007Z,3.70
2023-05-04T15:26:45.817Z,2.50
2023-05-04T15:29:12.631Z,2.90
2023-05-04T15:31:39.880Z,2.50
2023-05-04T15:34:07.138Z,2.80
2023-05-04T15:36:34.076Z,2.70
2023-05-04T15:39:01.024Z,2.50
2023-05-04T15:41:27.969Z,2.90
2023-05-04T15:43:54.849Z,2.60
2023-05-04T15:46:21.678Z,2.50
2023-05-04T15:48:48.567Z,2.70
2023-05-04T15:51:15.488Z,2.70
2023-05-04T15:53:42.386Z,2.00
2023-05-04T15:56:09.253Z,2.30
2023-05-04T15:58:36.177Z,2.50
2023-05-04T16:01:04.191Z,2.10
2023-05-04T16:03:31.764Z,2.10
2023-05-04T16:05:59.063Z,2.40
2023-05-04T16:08:26.277Z,2.00
2023-05-04T16:10:53.743Z,2.30
2023-05-04T16:13:21.153Z,2.00
2023-05-04T16:15:51.780Z,2.30
2023-05-04T16:18:18.793Z,2.00
2023-05-04T16:20:46.687Z,2.20
2023-05-04T16:23:15.198Z,2.00
2023-05-04T16:25:42.238Z,2.00
2023-05-04T16:28:09.271Z,1.90
2023-05-04T16:30:36.327Z,1.70
2023-05-04T16:33:03.634Z,2.00
2023-05-04T16:35:31.503Z,1.70
2023-05-04T16:37:58.800Z,1.60
2023-05-04T16:40:25.960Z,2.10
2023-05-04T16:42:52.870Z,2.10
2023-05-04T16:45:20.381Z,1.80
2023-05-04T16:47:47.344Z,2.20
2023-05-04T16:50:14.535Z,2.20
2023-05-04T16:52:41.675Z,2.20
2023-05-04T16:55:11.901Z,1.80
2023-05-04T16:57:39.709Z,1.70
2023-05-04T17:00:07.730Z,1.80
2023-05-04T17:02:35.678Z,1.60
2023-05-04T17:05:06.755Z,2.00
2023-05-04T17:07:34.275Z,1.70
2023-05-04T17:10:01.591Z,1.90
2023-05-04T17:12:29.140Z,1.50
2023-05-04T17:14:56.138Z,1.80
2023-05-04T17:17:23.118Z,1.60
2023-05-04T17:19:50.019Z,1.50
2023-05-04T17:22:17.646Z,1.90
2023-05-04T17:24:45.719Z,1.90
2023-05-04T17:27:13.161Z,1.40
2023-05-04T17:29:41.271Z,2.10
2023-05-04T17:32:08.429Z,1.80
2023-05-04T17:34:35.979Z,1.60
2023-05-04T17:37:03.453Z,1.50
2023-05-04T17:39:31.845Z,1.70
2023-05-04T17:41:58.933Z,1.80
2023-05-04T17:44:26.345Z,1.80
2023-05-04T17:46:53.206Z,1.60
2023-05-04T17:49:21.184Z,2.20
2023-05-04T17:51:49.511Z,1.90
2023-05-04T17:54:16.828Z,1.70
2023-05-04T17:56:43.866Z,1.50
2023-05-04T17:59:10.817Z,1.90
2023-05-04T18:01:37.822Z,1.70
2023-05-04T18:04:05.234Z,2.20
2023-05-04T18:06:32.844Z,1.80
2023-05-04T18:09:00.564Z,2.40
2023-05-04T18:11:27.385Z,1.50
2023-05-04T18:13:56.325Z,1.50
2023-05-04T18:16:24.390Z,1.80
2023-05-04T18:18:51.507Z,1.80
2023-05-04T18:21:18.507Z,1.70
2023-05-04T18:23:45.788Z,1.90
2023-05-04T18:26:22.959Z,1.90
2023-05-04T18:28:50.023Z,1.90
2023-05-04T18:31:17.570Z,2.40
2023-05-04T18:33:44.937Z,1.80
2023-05-04T18:36:12.375Z,1.90
2023-05-04T18:38:39.324Z,1.80
2023-05-04T18:41:06.322Z,1.60
2023-05-04T18:43:33.232Z,2.00
2023-05-04T18:46:07.102Z,2.10
2023-05-04T18:48:33.993Z,1.90
2023-05-04T18:51:01.249Z,1.70
2023-05-04T18:53:28.245Z,1.80
2023-05-04T18:56:05.619Z,2.10
2023-05-04T18:58:32.699Z,2.10
2023-05-04T19:00:59.766Z,1.80
2023-05-04T19:03:26.903Z,1.70
2023-05-04T19:05:54.008Z,1.80
2023-05-04T19:08:20.960Z,1.80
2023-05-04T19:10:48.675Z,2.10
2023-05-04T19:13:16.221Z,1.60
2023-05-04T19:15:43.403Z,1.80
2023-05-04T19:18:10.561Z,1.80
2023-05-04T19:20:37.970Z,1.70
2023-05-04T19:23:04.869Z,1.90
2023-05-04T19:25:35.201Z,1.70
2023-05-04T19:28:08.999Z,1.60
2023-05-04T19:30:37.240Z,1.80
2023-05-04T19:33:05.074Z,1.70
2023-05-04T19:35:32.394Z,1.80
2023-05-04T19:38:01.543Z,1.90
2023-05-04T19:40:28.626Z,1.80
2023-05-04T19:42:55.504Z,1.50
2023-05-04T19:45:22.438Z,1.80
2023-05-04T19:47:50.621Z,1.70
2023-05-04T19:50:18.142Z,1.80
2023-05-04T19:52:45.124Z,1.60
2023-05-04T19:55:11.995Z,1.50
2023-05-04T19:57:38.917Z,1.40
2023-05-04T20:00:06.944Z,2.20
2023-05-04T20:02:39.832Z,1.40
2023-05-04T20:05:07.269Z,1.90
2023-05-04T20:07:34.145Z,1.70
2023-05-04T20:10:01.013Z,1.50
2023-05-04T20:12:27.876Z,1.80
2023-05-04T20:14:54.769Z,1.50
2023-05-04T20:17:21.846Z,1.40
2023-05-04T20:19:49.276Z,1.50
2023-05-04T20:22:16.519Z,1.70
2023-05-04T20:24:43.566Z,1.40
2023-05-04T20:27:10.483Z,1.40
2023-05-04T20:29:37.383Z,1.50
2023-05-04T20:32:05.210Z,1.40
2023-05-04T20:34:32.310Z,1.70
2023-05-04T20:36:59.241Z,1.70
2023-05-04T20:39:26.294Z,1.60
2023-05-04T20:41:53.188Z,1.70
2023-05-04T20:44:20.092Z,1.50
2023-05-04T20:46:46.973Z,1.50
2023-05-04T20:49:13.891Z,1.60
2023-05-04T20:51:40.957Z,1.50
2023-05-04T20:54:08.001Z,1.40
2023-05-04T20:56:34.893Z,1.40
2023-05-04T20:59:01.753Z,1.30
2023-05-04T21:01:29.779Z,1.50
2023-05-04T21:03:56.942Z,1.60
2023-05-04T21:06:24.802Z,1.60
2023-05-04T21:08:51.775Z,1.40
2023-05-04T21:11:18.613Z,1.40
2023-05-04T21:13:45.449Z,1.60
2023-05-04T21:16:12.351Z,1.40
2023-05-04T21:18:39.463Z,1.40
2023-05-04T21:21:06.364Z,1.30
2023-05-04T21:23:33.257Z,1.40
2023-05-04T21:26:03.888Z,1.50
2023-05-04T21:28:30.976Z,1.90
2023-05-04T21:30:58.035Z,1.40
2023-05-04T21:33:25.070Z,1.50
2023-05-04T21:35:52.010Z,1.40
2023-05-04T21:38:21.689Z,1.80
2023-05-04T21:40:48.977Z,1.40
2023-05-04T21:43:15.932Z,1.50
2023-05-04T21:45:42.898Z,1.60
2023-05-04T21:48:09.803Z,1.20
2023-05-04T21:50:37.014Z,1.40
2023-05-04T21:53:04.054Z,1.40
2023-05-04T21:55:30.919Z,1.60
2023-05-04T21:57:57.848Z,1.70
2023-05-04T22:00:25.006Z,1.80
2023-05-04T22:02:54.136Z,1.50
2023-05-04T22:05:22.776Z,1.50
2023-05-04T22:07:50.294Z,1.50
2023-05-04T22:10:18.022Z,1.50
2023-05-04T22:12:44.937Z,1.70
2023-05-04T22:15:11.872Z,1.70
2023-05-04T22:17:39.049Z,1.70
2023-05-04T22:20:07.087Z,1.80
2023-05-04T22:22:34.838Z,1.50
2023-05-04T22:25:01.791Z,1.50
2023-05-04T22:27:28.636Z,1.30
2023-05-04T22:29:55.780Z,1.50
2023-05-04T22:32:22.748Z,1.70
2023-05-04T22:34:49.602Z,1.80
2023-05-04T22:37:16.533Z,1.80
2023-05-04T22:39:43.382Z,1.80
2023-05-04T22:42:10.383Z,2.10
2023-05-04T22:44:37.203Z,1.80
2023-05-04T22:47:04.480Z,1.60
2023-05-04T22:49:31.308Z,1.30
2023-05-04T22:51:58.354Z,1.50
2023-05-04T22:54:25.810Z,1.90
2023-05-04T22:56:52.760Z,1.60
2023-05-04T22:59:19.613Z,1.70
2023-05-04T23:01:46.773Z,1.70
2023-05-04T23:04:13.831Z,1.50
2023-05-04T23:06:40.767Z,1.80
2023-05-04T23:09:07.923Z,1.40
2023-05-04T23:11:34.982Z,1.60
2023-05-04T23:14:01.875Z,1.50
2023-05-04T23:16:28.831Z,1.80
2023-05-04T23:18:55.932Z,1.70
2023-05-04T23:21:23.013Z,1.50
2023-05-04T23:23:53.095Z,1.50
2023-05-04T23:26:20.061Z,1.60
2023-05-04T23:28:47.017Z,1.50
2023-05-04T23:31:13.998Z,1.80
2023-05-04T23:33:41.834Z,2.10
2023-05-04T23:36:08.708Z,1.80
2023-05-04T23:38:35.548Z,1.30
2023-05-04T23:41:05.874Z,1.40
2023-05-04T23:43:32.827Z,1.80
2023-05-04T23:46:03.773Z,1.60
2023-05-04T23:48:31.933Z,1.50
2023-05-04T23:51:03.711Z,1.60
2023-05-04T23:53:32.084Z,1.50
2023-05-04T23:56:06.692Z,1.60
2023-05-04T23:58:34.418Z,1.70
